Time;durP1;ratioP1;P1;durP2;ratioP2;P2;SDS_P1;SDS_P2;PMS_P1;PMS_P2;Temp;Humidity;BMP_temperature;BMP_pressure;BME280_temperature;BME280_humidity;BME280_pressure;Samples;Min_cycle;Max_cycle;Signal;HPM_P1;HPM_P2
2021/03/12 00:01:34;;;;;;;11.63;7.20;;;;;;;-1.25;52.80;99516.13;1767191;80;21210;-40
2021/03/12 00:04:02;;;;;;;12.30;7.12;;;;;;;-1.29;52.50;99524.41;1777078;79;21625;-40
2021/03/12 00:06:30;;;;;;;15.98;8.33;;;;;;;-1.33;52.75;99502.36;1752908;80;21174;-40
2021/03/12 00:08:58;;;;;;;10.90;6.95;;;;;;;-1.29;52.66;99493.82;1756640;80;21146;-40
2021/03/12 00:11:27;;;;;;;11.60;7.35;;;;;;;-1.29;52.83;99496.48;1771702;79;21135;-40
2021/03/12 00:13:56;;;;;;;15.48;8.08;;;;;;;-1.28;52.83;99484.24;1780525;79;21385;-39
2021/03/12 00:16:24;;;;;;;13.60;7.33;;;;;;;-1.27;52.85;99482.37;1794372;79;21143;-40
2021/03/12 00:18:52;;;;;;;10.90;7.20;;;;;;;-1.27;52.74;99480.52;1766707;79;21153;-40
2021/03/12 00:21:21;;;;;;;14.15;8.35;;;;;;;-1.22;52.70;99465.05;1735475;80;21186;-40
2021/03/12 00:23:49;;;;;;;14.18;7.60;;;;;;;-1.24;52.99;99460.53;1796962;79;21151;-40
2021/03/12 00:26:17;;;;;;;13.03;8.45;;;;;;;-1.24;52.85;99455.22;1767315;78;22264;-40
2021/03/12 00:28:45;;;;;;;16.27;7.72;;;;;;;-1.27;52.80;99457.11;1770693;79;21975;-40
2021/03/12 00:31:13;;;;;;;12.47;7.70;;;;;;;-1.34;52.78;99463.54;1779160;78;21024;-40
2021/03/12 00:33:41;;;;;;;16.60;7.83;;;;;;;-1.34;52.98;99448.91;1790835;78;21637;-40
2021/03/12 00:36:09;;;;;;;13.28;7.80;;;;;;;-1.40;53.30;99438.05;1796984;79;21155;-39
2021/03/12 00:38:38;;;;;;;11.95;7.47;;;;;;;-1.41;53.20;99441.81;1778155;79;21359;-40
2021/03/12 00:41:07;;;;;;;15.53;8.20;;;;;;;-1.39;53.18;99430.88;1717045;82;21589;-39
2021/03/12 00:43:42;;;;;;;14.60;8.58;;;;;;;-1.49;53.42;99437.06;1790432;79;21190;-40
2021/03/12 00:46:12;;;;;;;16.45;8.38;;;;;;;-1.44;53.18;99431.71;1777257;79;21817;-40
2021/03/12 00:48:40;;;;;;;13.10;7.80;;;;;;;-1.46;53.47;99411.80;1763847;79;21156;-40
2021/03/12 00:51:08;;;;;;;14.05;7.85;;;;;;;-1.50;53.45;99412.11;1711533;82;21221;-39
2021/03/12 00:53:41;;;;;;;15.43;8.55;;;;;;;-1.46;53.32;99406.48;1781100;79;21167;-40
2021/03/12 00:56:09;;;;;;;12.23;7.95;;;;;;;-1.47;53.44;99401.70;1713620;82;21158;-39
2021/03/12 00:58:41;;;;;;;15.68;8.23;;;;;;;-1.50;53.39;99383.63;1783065;79;21122;-40
2021/03/12 01:01:10;;;;;;;;;;;;;;;-1.48;53.46;99383.36;1746771;79;21184;-39
2021/03/12 01:03:39;;;;;;;14.47;7.43;;;;;;;-1.47;53.54;99364.48;1789349;79;21307;-40
2021/03/12 01:06:09;;;;;;;10.28;6.10;;;;;;;-1.57;53.70;99365.91;1716626;82;21183;-40
2021/03/12 01:08:43;;;;;;;15.48;7.90;;;;;;;-1.56;53.75;99370.16;1794032;79;21202;-40
2021/03/12 01:11:14;;;;;;;12.37;7.28;;;;;;;-1.54;53.67;99372.52;1789586;79;21163;-40
2021/03/12 01:13:43;;;;;;;12.18;7.72;;;;;;;-1.50;53.27;99382.30;1796275;79;21158;-40
2021/03/12 01:16:11;;;;;;;13.95;8.40;;;;;;;-1.51;53.31;99398.02;1792211;79;21358;-40
2021/03/12 01:18:40;;;;;;;19.87;8.60;;;;;;;-1.47;53.31;99376.98;1801921;79;21605;-39
2021/03/12 01:21:16;;;;;;;11.38;7.67;;;;;;;-1.46;53.00;99383.36;1786164;79;21127;-40
2021/03/12 01:23:44;;;;;;;12.50;8.03;;;;;;;-1.47;52.69;99407.02;1772632;79;21134;-40
2021/03/12 01:26:12;;;;;;;13.85;7.58;;;;;;;-1.47;52.81;99395.06;1784129;79;21131;-40
2021/03/12 01:28:53;;;;;;;11.38;6.87;;;;;;;-1.45;52.55;99373.48;1811436;77;22919;-39
2021/03/12 01:31:23;;;;;;;12.47;7.85;;;;;;;-1.50;52.68;99382.30;1802450;77;21173;-39
2021/03/12 01:33:53;;;;;;;;;;;;;;;-1.48;52.66;99364.22;1787245;78;21207;-39
2021/03/12 01:36:22;;;;;;;11.97;6.57;;;;;;;-1.52;52.62;99350.44;1784074;78;20143;-39
2021/03/12 01:38:52;;;;;;;12.28;7.53;;;;;;;-1.59;52.76;99340.13;1793970;77;20984;-39
2021/03/12 01:41:20;;;;;;;16.30;7.17;;;;;;;-1.58;52.62;99335.07;1808554;77;21095;-38
2021/03/12 01:43:50;;;;;;;16.42;6.62;;;;;;;-1.53;52.57;99315.09;1780977;79;20988;-39
2021/03/12 01:46:19;;;;;;;14.23;7.20;;;;;;;-1.54;52.33;99306.05;1717328;82;21392;-38
2021/03/12 01:48:48;;;;;;;13.95;7.50;;;;;;;-1.53;52.40;99320.41;1777002;80;21518;-39
2021/03/12 01:51:16;;;;;;;13.18;7.37;;;;;;;-1.50;52.42;99326.47;1747484;80;21036;-39
2021/03/12 01:53:45;;;;;;;16.23;7.80;;;;;;;-1.52;52.91;99322.00;1777080;80;21181;-39
2021/03/12 01:56:13;;;;;;;15.35;7.55;;;;;;;-1.54;52.43;99317.48;1752845;80;21186;-39
2021/03/12 01:58:55;;;;;;;15.32;7.72;;;;;;;-1.52;52.68;99311.89;1766214;80;21308;-39
2021/03/12 02:01:34;;;;;;;14.53;7.53;;;;;;;-1.50;52.38;99305.20;1836989;78;22731;-39
2021/03/12 02:04:05;;;;;;;14.10;7.97;;;;;;;-1.53;52.71;99301.80;1796858;77;20976;-39
2021/03/12 02:06:35;;;;;;;15.60;7.78;;;;;;;-1.53;52.37;99296.48;1780349;80;21293;-39
2021/03/12 02:09:04;;;;;;;13.78;7.70;;;;;;;-1.58;52.33;99279.25;1802055;79;21043;-39
2021/03/12 02:11:38;;;;;;;20.17;8.13;;;;;;;-1.51;52.26;99286.37;1791741;77;21552;-38
2021/03/12 02:14:18;;;;;;;16.45;9.35;;;;;;;-1.53;52.29;99287.17;1812087;77;21110;-39
2021/03/12 02:16:54;;;;;;;13.85;8.10;;;;;;;-1.61;52.45;99282.48;1814206;79;21623;-39
2021/03/12 02:20:08;;;;;;;14.15;8.18;;;;;;;-1.61;52.51;99279.82;1779734;80;21547;-39
2021/03/12 02:22:37;;;;;;;13.08;8.00;;;;;;;-1.65;52.71;99268.17;1780259;80;21127;-40
2021/03/12 02:25:13;;;;;;;13.78;8.20;;;;;;;-1.63;52.53;99272.66;1732250;82;21001;-40
2021/03/12 02:27:45;;;;;;;13.15;7.75;;;;;;;-1.63;52.53;99272.66;1759491;80;21712;-40
2021/03/12 02:30:15;;;;;;;15.55;8.75;;;;;;;-1.67;52.99;99272.17;1777637;80;21149;-40
2021/03/12 02:32:45;;;;;;;16.27;8.80;;;;;;;-2.07;52.90;99215.69;1775170;79;21616;-40
2021/03/12 02:35:19;;;;;;;12.65;8.05;;;;;;;-1.69;52.87;99288.95;1778491;79;21226;-40
2021/03/12 02:37:48;;;;;;;18.23;8.65;;;;;;;-1.63;52.84;99268.66;1742354;80;21182;-40
2021/03/12 02:40:17;;;;;;;12.82;7.80;;;;;;;-1.64;52.96;99277.70;1746786;80;21171;-40
2021/03/12 02:42:47;;;;;;;14.25;7.85;;;;;;;-1.61;52.94;99243.94;1689908;82;21243;-40
2021/03/12 02:45:18;;;;;;;15.90;8.95;;;;;;;-1.58;52.87;99241.23;1777203;80;21186;-41
2021/03/12 02:47:47;;;;;;;15.60;9.08;;;;;;;-1.58;53.03;99260.64;1743698;79;21603;-40
2021/03/12 02:50:17;;;;;;;;;;;;;;;-1.62;53.03;99256.97;1783056;79;21214;-40
2021/03/12 02:52:45;;;;;;;14.60;8.45;;;;;;;-1.58;52.96;99239.91;1771779;78;20265;-41
2021/03/12 02:55:16;;;;;;;16.90;8.43;;;;;;;-1.69;53.20;99229.92;1747801;80;21134;-40
2021/03/12 02:57:48;;;;;;;13.38;8.93;;;;;;;-1.68;53.19;99244.80;1724711;81;21403;-40
2021/03/12 03:00:19;;;;;;;15.98;8.30;;;;;;;-1.68;53.11;99254.09;1730638;81;21048;-40
2021/03/12 03:03:14;;;;;;;14.28;8.55;;;;;;;-1.67;53.33;99244.27;1839482;78;20908;-39
2021/03/12 03:05:47;;;;;;;17.67;8.88;;;;;;;-1.77;53.37;99262.44;1778024;79;20941;-39
2021/03/12 03:08:16;;;;;;;;;;;;;;;-1.72;53.38;99249.09;1807715;79;21386;-39
2021/03/12 03:10:45;;;;;;;12.80;7.25;;;;;;;-1.79;53.53;99243.30;1767251;79;20195;-39
2021/03/12 03:13:13;;;;;;;15.70;8.23;;;;;;;-1.87;53.84;99243.39;1747595;81;21030;-39
2021/03/12 03:15:41;;;;;;;17.10;8.45;;;;;;;-1.88;53.71;99253.77;1753567;80;21885;-39
2021/03/12 03:18:12;;;;;;;12.37;7.75;;;;;;;-1.83;53.68;99234.31;1744773;81;20976;-39
2021/03/12 03:20:46;;;;;;;13.62;8.45;;;;;;;-1.84;53.73;99243.39;1749151;82;21395;-39
2021/03/12 03:23:15;;;;;;;14.13;7.65;;;;;;;-1.85;53.59;99248.44;1726437;80;21063;-38
2021/03/12 03:25:45;;;;;;;12.03;6.28;;;;;;;-1.87;53.74;99227.98;1734381;82;21044;-39
2021/03/12 03:28:14;;;;;;;15.72;8.50;;;;;;;-1.88;53.62;99217.09;1728688;81;21201;-39
2021/03/12 03:30:42;;;;;;;13.30;8.03;;;;;;;-1.89;53.92;99218.20;1746567;81;21183;-39
2021/03/12 03:33:12;;;;;;;14.38;7.83;;;;;;;-1.91;53.80;99209.70;1747694;81;21511;-39
2021/03/12 03:35:40;;;;;;;12.78;7.85;;;;;;;-1.95;53.89;99223.30;1741960;81;21589;-39
2021/03/12 03:38:08;;;;;;;16.23;7.92;;;;;;;-1.96;54.14;99197.80;1740840;81;21214;-38
2021/03/12 03:40:36;;;;;;;13.08;8.00;;;;;;;-1.97;53.92;99198.86;1756757;81;21134;-39
2021/03/12 03:43:05;;;;;;;13.03;7.67;;;;;;;-1.93;53.84;99166.67;1751144;81;22103;-39
2021/03/12 03:45:33;;;;;;;13.58;7.30;;;;;;;-1.97;53.94;99180.27;1774735;80;21396;-39
2021/03/12 03:48:11;;;;;;;14.00;7.97;;;;;;;-1.98;54.12;99200.72;1756213;80;21143;-39
2021/03/12 03:50:40;;;;;;;13.03;7.62;;;;;;;-1.96;54.11;99192.48;1720085;81;21158;-39
2021/03/12 03:53:10;;;;;;;12.70;7.42;;;;;;;-1.95;54.11;99188.76;1748945;81;21171;-39
2021/03/12 03:55:39;;;;;;;14.03;8.10;;;;;;;-1.94;54.21;99163.78;1748874;81;21166;-39
2021/03/12 03:58:07;;;;;;;13.22;7.90;;;;;;;-1.93;54.10;99194.03;1725997;81;21402;-39
2021/03/12 04:00:35;;;;;;;15.03;8.40;;;;;;;-1.98;54.17;99189.30;1736643;81;21256;-39
2021/03/12 04:03:05;;;;;;;11.35;6.08;;;;;;;-1.98;54.17;99189.30;1747033;80;21190;-39
2021/03/12 04:05:35;;;;;;;15.83;8.20;;;;;;;-1.99;54.18;99199.16;1776700;80;21183;-39
2021/03/12 04:08:04;;;;;;;14.80;7.70;;;;;;;-2.08;54.60;99239.89;1749543;80;21198;-39
2021/03/12 04:10:34;;;;;;;12.95;8.03;;;;;;;-2.08;54.60;99239.89;1733328;82;21295;-38
2021/03/12 04:13:03;;;;;;;12.53;8.05;;;;;;;-2.04;54.60;99196.55;1771461;80;21178;-39
2021/03/12 04:15:32;;;;;;;14.55;7.75;;;;;;;-2.09;55.12;99193.15;1770724;80;21593;-39
2021/03/12 04:18:00;;;;;;;15.03;8.00;;;;;;;-2.09;55.12;99193.15;1752142;80;22289;-39
2021/03/12 04:20:30;;;;;;;14.85;7.90;;;;;;;-2.07;54.93;99210.38;1747612;80;21171;-39
2021/03/12 04:22:58;;;;;;;14.35;8.43;;;;;;;-2.09;55.05;99199.79;1725512;80;22124;-39
2021/03/12 04:25:28;;;;;;;;;;;;;;;-2.10;55.09;99210.16;1768529;80;21852;-38
2021/03/12 04:27:56;;;;;;;13.75;7.67;;;;;;;-2.11;55.03;99192.63;1745002;82;20283;-39
2021/03/12 04:30:26;;;;;;;13.80;8.40;;;;;;;-2.18;55.32;99197.48;1735446;80;21039;-38
2021/03/12 04:32:54;;;;;;;12.20;6.67;;;;;;;-2.20;55.39;99191.92;1763069;80;21163;-38
2021/03/12 04:35:22;;;;;;;16.62;8.48;;;;;;;-2.15;55.47;99194.27;1772481;80;21368;-39
2021/03/12 04:37:50;;;;;;;13.40;8.25;;;;;;;-2.13;55.50;99198.77;1752614;80;21159;-39
2021/03/12 04:40:19;;;;;;;14.03;8.65;;;;;;;-2.18;55.46;99207.58;1726044;80;21111;-39
2021/03/12 04:42:49;;;;;;;15.13;9.40;;;;;;;-2.16;55.56;99208.61;1759128;80;21130;-39
2021/03/12 04:45:18;;;;;;;16.70;9.90;;;;;;;-2.23;55.81;99216.35;1698111;82;21677;-39
2021/03/12 04:47:48;;;;;;;14.28;8.55;;;;;;;-2.20;55.66;99218.47;1736179;81;21444;-39
2021/03/12 04:50:18;;;;;;;14.60;8.80;;;;;;;-2.24;55.77;99241.88;1723601;81;21166;-39
2021/03/12 04:52:46;;;;;;;15.72;9.10;;;;;;;-2.17;55.77;99220.30;1737388;80;21190;-39
2021/03/12 04:55:16;;;;;;;14.93;8.70;;;;;;;-2.22;55.84;99219.27;1746514;81;21162;-38
2021/03/12 04:57:45;;;;;;;15.45;9.80;;;;;;;-2.27;55.93;99221.97;1732646;81;21214;-38
2021/03/12 05:00:15;;;;;;;14.58;8.28;;;;;;;-2.29;56.46;99225.98;1729527;81;21219;-39
2021/03/12 05:02:56;;;;;;;17.65;8.93;;;;;;;-2.29;56.46;99225.98;1724476;81;21028;-39
2021/03/12 05:05:25;;;;;;;14.90;9.20;;;;;;;-2.28;56.43;99209.79;1720671;81;21068;-39
2021/03/12 05:07:53;;;;;;;13.35;8.55;;;;;;;-2.32;56.52;99216.70;1774783;79;21462;-39
2021/03/12 05:10:29;;;;;;;14.40;8.28;;;;;;;-2.27;56.40;99216.66;1778767;79;21170;-39
2021/03/12 05:12:59;;;;;;;;;;;;;;;-2.27;56.34;99199.40;1814167;79;23515;-39
2021/03/12 05:15:30;;;;;;;16.57;9.75;;;;;;;-2.32;56.52;99211.92;1795162;79;20484;-39
2021/03/12 05:17:58;;;;;;;15.95;8.85;;;;;;;-2.40;56.71;99202.70;1775127;79;21087;-39
2021/03/12 05:20:27;;;;;;;16.90;9.05;;;;;;;-2.43;56.91;99180.71;1772345;79;21191;-39
2021/03/12 05:22:55;;;;;;;18.90;9.50;;;;;;;-2.40;57.06;99207.22;1774589;79;21617;-39
2021/03/12 05:25:24;;;;;;;16.17;9.78;;;;;;;-2.37;56.95;99208.78;1788786;78;21372;-39
2021/03/12 05:27:52;;;;;;;17.07;10.00;;;;;;;-2.32;56.90;99193.34;1794437;79;21163;-39
2021/03/12 05:30:23;;;;;;;15.35;9.10;;;;;;;-2.29;56.65;99198.11;1793457;79;21190;-39
2021/03/12 05:32:53;;;;;;;19.15;10.38;;;;;;;-2.29;56.48;99192.27;1802101;79;21146;-39
2021/03/12 05:35:21;;;;;;;15.58;9.78;;;;;;;-2.29;56.56;99185.63;1803319;79;21131;-39
2021/03/12 05:37:49;;;;;;;15.75;9.30;;;;;;;-2.30;56.71;99213.77;1809045;78;21198;-38
2021/03/12 05:40:19;;;;;;;15.70;9.90;;;;;;;-2.28;56.46;99191.73;1795957;78;21156;-39
2021/03/12 05:42:51;;;;;;;18.67;10.68;;;;;;;-2.28;56.58;99189.08;1749015;81;21158;-39
2021/03/12 05:45:20;;;;;;;16.02;9.13;;;;;;;-2.24;56.67;99186.91;1773339;80;21153;-39
2021/03/12 05:47:50;;;;;;;15.85;9.63;;;;;;;-2.20;56.34;99169.34;1801012;79;21178;-39
2021/03/12 05:50:18;;;;;;;17.95;10.43;;;;;;;-2.22;56.25;99164.84;1803480;79;22139;-39
2021/03/12 05:52:47;;;;;;;18.82;10.03;;;;;;;-2.22;56.25;99164.84;1753449;79;21127;-38
2021/03/12 05:55:18;;;;;;;14.90;10.10;;;;;;;-2.24;56.21;99155.58;1800088;79;21151;-39
2021/03/12 05:57:48;;;;;;;19.30;10.30;;;;;;;-2.35;56.65;99150.90;1775449;79;21119;-39
2021/03/12 06:00:27;;;;;;;21.45;10.35;;;;;;;-2.26;56.70;99161.16;1887610;76;22751;-39
2021/03/12 06:02:56;;;;;;;15.68;9.95;;;;;;;-2.27;56.49;99144.17;1828584;77;21023;-39
2021/03/12 06:05:27;;;;;;;;;;;;;;;-2.28;56.60;99146.06;1855820;77;21364;-39
2021/03/12 06:07:54;;;;;;;18.00;10.60;;;;;;;-2.28;56.57;99142.09;1857120;77;20138;-39
2021/03/12 06:10:23;;;;;;;20.12;9.70;;;;;;;-2.36;56.55;99129.40;1843219;77;21271;-39
2021/03/12 06:12:55;;;;;;;17.67;10.30;;;;;;;-2.31;56.55;99136.52;1844909;77;21034;-39
2021/03/12 06:15:35;;;;;;;13.95;9.23;;;;;;;-2.27;56.45;99142.31;1850424;77;20992;-41
2021/03/12 06:18:21;;;;;;;21.70;9.90;;;;;;;-2.27;56.22;99117.09;1849329;77;21415;-39
2021/03/12 06:20:52;;;;;;;15.88;9.33;;;;;;;-2.32;56.21;99112.36;1784598;80;21698;-39
2021/03/12 06:23:39;;;;;;;14.05;9.08;;;;;;;-2.33;55.95;99116.11;1758898;80;21068;-39
2021/03/12 06:26:50;;;;;;;18.92;9.90;;;;;;;-2.23;56.23;99131.39;1758733;79;23323;-39
2021/03/12 06:29:35;;;;;;;20.95;9.58;;;;;;;-2.32;56.19;99131.75;1719431;82;21016;-38
2021/03/12 06:32:15;;;;;;;15.53;9.28;;;;;;;-2.16;56.30;99120.97;1816796;78;22799;-39
2021/03/12 06:35:00;;;;;;;18.02;9.40;;;;;;;-2.21;55.71;99161.11;1781319;80;20933;-39
2021/03/12 06:38:07;;;;;;;16.90;9.28;;;;;;;-2.09;55.70;99126.75;1883540;75;22801;-39
2021/03/12 06:40:38;;;;;;;16.95;9.73;;;;;;;-2.08;55.58;99147.70;1814845;76;21261;-39
2021/03/12 06:43:24;;;;;;;17.65;9.35;;;;;;;-2.00;55.50;99126.39;1790213;77;22316;-39
2021/03/12 06:45:59;;;;;;;15.85;9.55;;;;;;;-2.05;55.32;99130.42;1729449;81;21612;-39
2021/03/12 06:48:33;;;;;;;15.65;9.58;;;;;;;-2.00;55.35;99131.70;1749533;81;21318;-38
2021/03/12 06:51:19;;;;;;;13.25;7.87;;;;;;;-1.99;55.21;99135.95;1749752;80;21044;-38
2021/03/12 06:53:51;;;;;;;14.35;8.15;;;;;;;-2.00;55.34;99139.13;1761049;81;20969;-39
2021/03/12 06:56:29;;;;;;;16.27;8.83;;;;;;;-1.97;55.25;99137.23;1744319;81;21018;-39
2021/03/12 06:59:05;;;;;;;16.05;8.78;;;;;;;-1.96;55.34;99131.39;1735756;81;21061;-39
2021/03/12 07:01:35;;;;;;;15.95;9.15;;;;;;;-1.95;55.09;99144.93;1733971;81;23468;-38
2021/03/12 07:04:13;;;;;;;;;;;;;;;-1.88;55.14;99130.75;1741084;80;20992;-39
2021/03/12 07:06:48;;;;;;;20.10;8.95;;;;;;;-1.95;55.22;99111.72;1749285;79;20539;-39
2021/03/12 07:09:18;;;;;;;16.80;8.98;;;;;;;-2.07;55.44;99111.31;1751170;81;21182;-38
2021/03/12 07:12:02;;;;;;;14.93;9.10;;;;;;;-1.94;55.48;99086.75;1871001;75;22639;-39
2021/03/12 07:14:41;;;;;;;16.50;9.18;;;;;;;-1.95;55.39;99088.61;1842845;77;21023;-38
2021/03/12 07:17:24;;;;;;;15.32;9.18;;;;;;;-1.90;55.54;99096.52;1809957;78;22695;-39
2021/03/12 07:19:54;;;;;;;;;;;;;;;-1.90;55.41;99097.05;1793099;79;21000;-39
2021/03/12 07:22:22;;;;;;;13.78;7.80;;;;;;;-1.83;55.31;99108.11;1787037;79;21385;-39
2021/03/12 07:24:52;;;;;;;14.58;8.33;;;;;;;-1.88;55.42;99103.65;1797209;79;21012;-39
2021/03/12 07:27:21;;;;;;;17.52;9.48;;;;;;;-1.86;55.22;99167.94;1795390;79;20988;-39
2021/03/12 07:30:01;;;;;;;16.67;9.15;;;;;;;-1.80;55.29;99140.24;1818793;76;22789;-39
2021/03/12 07:32:32;;;;;;;16.00;9.00;;;;;;;-1.81;55.21;99121.91;1792908;79;20999;-39
2021/03/12 07:35:03;;;;;;;14.55;8.75;;;;;;;-1.79;55.10;99097.95;1736086;82;21613;-39
2021/03/12 07:37:35;;;;;;;15.70;9.28;;;;;;;-1.79;55.27;99087.86;1747183;80;21087;-38
2021/03/12 07:40:05;;;;;;;16.20;8.85;;;;;;;-1.74;55.46;99087.04;1752875;80;21549;-38
2021/03/12 07:42:34;;;;;;;15.50;9.28;;;;;;;-1.72;55.13;99083.54;1771585;80;20973;-38
2021/03/12 07:45:19;;;;;;;20.60;9.73;;;;;;;-1.69;55.24;99094.37;1759114;80;20958;-38
2021/03/12 07:48:06;;;;;;;17.92;8.90;;;;;;;-1.68;55.12;99092.52;1705915;82;21285;-38
2021/03/12 07:50:38;;;;;;;15.18;8.90;;;;;;;-1.70;55.27;99080.87;1715407;83;21656;-37
2021/03/12 07:53:10;;;;;;;18.57;9.63;;;;;;;-1.64;55.07;99078.37;1748605;80;21013;-37
2021/03/12 07:55:52;;;;;;;20.20;8.65;;;;;;;-1.54;55.44;99092.06;1814868;78;22764;-38
2021/03/12 07:58:50;;;;;;;16.35;9.03;;;;;;;-1.51;55.05;99105.59;1775571;79;21036;-39
2021/03/12 08:01:20;;;;;;;19.57;10.05;;;;;;;-1.42;54.83;99081.27;1793937;79;21190;-39
2021/03/12 08:03:51;;;;;;;25.48;9.60;;;;;;;-1.45;54.82;99079.17;1689878;81;21019;-39
2021/03/12 08:06:36;;;;;;;14.20;10.18;;;;;;;-1.37;54.86;99067.11;1803233;78;28399;-38
2021/03/12 08:09:32;;;;;;;18.60;9.28;;;;;;;-1.05;54.39;99076.46;1814063;79;20977;-37
2021/03/12 08:12:37;;;;;;;16.97;8.80;;;;;;;-1.01;54.14;99072.67;1815289;79;21031;-38
2021/03/12 08:15:34;;;;;;;16.30;10.17;;;;;;;-1.04;54.16;99077.25;1816736;77;27860;-38
2021/03/12 08:18:23;;;;;;;16.50;9.50;;;;;;;-0.90;53.86;99066.11;1785706;79;21012;-38
2021/03/12 08:21:31;;;;;;;16.10;9.13;;;;;;;-0.90;53.83;99066.91;1783951;80;21752;-38
2021/03/12 08:24:02;;;;;;;18.05;10.10;;;;;;;-1.04;54.25;99051.98;1771995;80;20999;-38
2021/03/12 08:26:54;;;;;;;16.73;9.15;;;;;;;-1.07;54.45;99045.38;1800613;79;21158;-38
2021/03/12 08:29:41;;;;;;;17.90;9.05;;;;;;;-1.08;54.75;99063.75;1774445;80;21024;-38
2021/03/12 08:32:37;;;;;;;18.23;8.93;;;;;;;-1.06;54.97;99057.58;1791661;79;21027;-38
2021/03/12 08:35:38;;;;;;;17.02;9.40;;;;;;;-1.05;54.80;99032.56;1796657;79;21389;-38
2021/03/12 08:38:31;;;;;;;17.27;9.68;;;;;;;-1.03;55.13;99023.77;1812927;79;21055;-38
2021/03/12 08:41:18;;;;;;;15.18;9.25;;;;;;;-0.92;55.08;99016.41;1868674;76;22810;-38
2021/03/12 08:43:51;;;;;;;19.62;10.00;;;;;;;-0.99;55.16;99016.78;1774486;78;21128;-39
2021/03/12 08:46:28;;;;;;;15.28;8.28;;;;;;;-1.00;55.36;98985.13;1822175;77;21288;-39
2021/03/12 08:49:01;;;;;;;15.55;8.20;;;;;;;-0.97;55.39;98997.87;1821855;78;21549;-39
2021/03/12 08:51:32;;;;;;;15.83;8.45;;;;;;;-0.96;55.58;98976.81;1810334;78;20932;-38
2021/03/12 08:54:02;;;;;;;18.17;9.33;;;;;;;-0.97;55.66;99000.53;1826192;77;20969;-38
2021/03/12 08:56:41;;;;;;;15.80;7.95;;;;;;;-0.93;56.76;99004.18;1855492;76;22888;-39
2021/03/12 08:59:09;;;;;;;15.48;8.68;;;;;;;-0.96;56.14;99014.84;1825993;78;21638;-39
2021/03/12 09:01:50;;;;;;;17.02;8.83;;;;;;;-0.92;56.16;99001.77;1827488;78;22687;-39
2021/03/12 09:04:23;;;;;;;17.65;9.58;;;;;;;-0.93;56.26;99004.97;1747848;82;21028;-39
2021/03/12 09:06:53;;;;;;;18.65;9.08;;;;;;;-0.96;56.31;98990.11;1749028;80;21307;-38
2021/03/12 09:09:33;;;;;;;16.12;9.50;;;;;;;-0.90;56.35;98992.41;1827899;78;22811;-39
2021/03/12 09:12:04;;;;;;;13.32;8.53;;;;;;;-1.00;57.13;98997.89;1788903;79;21855;-39
2021/03/12 09:14:47;;;;;;;15.85;8.30;;;;;;;-0.97;56.99;99001.29;1835854;78;22854;-39
2021/03/12 09:17:19;;;;;;;18.82;9.35;;;;;;;-0.99;56.99;98996.03;1801172;79;21004;-39
2021/03/12 09:19:53;;;;;;;17.98;9.13;;;;;;;-1.03;58.02;98996.37;1784743;79;21351;-39
2021/03/12 09:22:24;;;;;;;16.10;8.60;;;;;;;-1.04;58.30;99000.89;1776584;79;20961;-39
2021/03/12 09:24:55;;;;;;;15.32;8.38;;;;;;;-1.04;58.77;98993.45;1802429;79;20945;-39
2021/03/12 09:27:37;;;;;;;17.92;9.63;;;;;;;-1.07;59.36;98992.18;1724945;82;21016;-38
2021/03/12 09:30:12;;;;;;;17.32;8.95;;;;;;;-1.06;59.97;98988.95;1714938;81;21059;-39
2021/03/12 09:32:40;;;;;;;18.35;8.88;;;;;;;-1.02;60.11;98976.67;1691506;82;22316;-39
2021/03/12 09:35:17;;;;;;;18.27;9.00;;;;;;;-1.05;60.85;98967.39;1737064;82;21064;-38
2021/03/12 09:37:46;;;;;;;15.83;8.98;;;;;;;-1.11;62.59;98964.56;1740668;82;21025;-39
2021/03/12 09:40:37;;;;;;;24.27;9.65;;;;;;;-1.17;64.87;98981.71;1734474;82;21129;-39
2021/03/12 09:43:24;;;;;;;15.18;8.53;;;;;;;-1.24;65.94;98973.30;1822010;78;22836;-39
2021/03/12 09:45:55;;;;;;;18.40;9.35;;;;;;;-1.24;65.94;98973.30;1781145;79;20964;-39
2021/03/12 09:48:32;;;;;;;19.92;10.28;;;;;;;-1.22;65.72;98983.66;1788186;79;21268;-39
2021/03/12 09:51:02;;;;;;;19.70;9.98;;;;;;;-1.27;67.83;98959.80;1731050;80;21612;-39
2021/03/12 09:53:32;;;;;;;21.52;9.95;;;;;;;-1.29;67.25;98964.61;1740866;81;25340;-39
2021/03/12 09:56:01;;;;;;;20.35;9.95;;;;;;;-1.28;68.28;98939.61;1742409;81;21071;-39
2021/03/12 09:58:31;;;;;;;15.53;9.18;;;;;;;-1.34;69.72;98960.17;1728601;81;21064;-39
2021/03/12 10:01:12;;;;;;;21.57;9.70;;;;;;;-1.34;69.36;98961.50;1735560;81;21355;-39
2021/03/12 10:03:41;;;;;;;23.12;10.28;;;;;;;-1.36;69.20;98961.02;1733763;81;21016;-39
2021/03/12 10:06:12;;;;;;;19.30;9.63;;;;;;;-1.38;69.08;98957.31;1745555;81;21617;-39
2021/03/12 10:09:09;;;;;;;16.40;10.38;;;;;;;-1.34;69.20;98938.36;1751846;81;21147;-39
2021/03/12 10:11:54;;;;;;;18.80;9.93;;;;;;;-1.31;69.85;98956.37;1750239;81;21131;-39
2021/03/12 10:14:34;;;;;;;19.87;10.28;;;;;;;-1.40;69.37;98957.34;1751544;81;21376;-39
2021/03/12 10:17:09;;;;;;;;;;;;;;;-1.36;70.75;98953.04;1738951;81;21196;-39
2021/03/12 10:20:04;;;;;;;18.92;10.00;;;;;;;-1.36;70.92;98951.17;1723902;81;20277;-39
2021/03/12 10:22:43;;;;;;;21.00;10.13;;;;;;;-1.42;71.66;98956.31;1747964;81;21119;-39
2021/03/12 10:25:29;;;;;;;16.02;9.30;;;;;;;-1.42;71.25;98958.18;1738488;81;21647;-38
2021/03/12 10:28:07;;;;;;;17.12;9.85;;;;;;;-1.40;71.53;98951.48;1757768;81;22184;-39
2021/03/12 10:30:42;;;;;;;17.27;10.03;;;;;;;-1.31;71.14;98942.32;1768349;80;21189;-39
2021/03/12 10:33:20;;;;;;;19.73;10.40;;;;;;;-1.20;71.13;98944.24;1708377;82;21172;-39
2021/03/12 10:35:52;;;;;;;18.55;9.38;;;;;;;-1.12;70.67;98940.39;1743226;82;21628;-39
2021/03/12 10:38:24;;;;;;;17.60;9.48;;;;;;;-1.13;70.66;98962.75;1765757;80;21160;-39
2021/03/12 10:41:05;;;;;;;15.93;9.03;;;;;;;-1.11;71.39;98947.81;1730318;82;21187;-39
2021/03/12 10:43:35;;;;;;;16.67;9.83;;;;;;;-1.14;71.88;98942.55;1691710;82;21215;-38
2021/03/12 10:46:08;;;;;;;15.13;9.23;;;;;;;-1.12;71.85;98948.91;1714487;82;21589;-39
2021/03/12 10:48:44;;;;;;;16.50;10.20;;;;;;;-1.11;71.94;98955.78;1713966;82;21208;-39
2021/03/12 10:51:15;;;;;;;24.67;10.38;;;;;;;-1.12;71.80;98948.91;1715995;82;21609;-39
2021/03/12 10:53:54;;;;;;;15.08;9.75;;;;;;;-1.11;71.91;98945.15;1742074;82;22647;-39
2021/03/12 10:56:26;;;;;;;18.05;10.30;;;;;;;-1.08;73.80;98941.38;1740141;82;21524;-38
2021/03/12 10:58:56;;;;;;;15.35;9.13;;;;;;;-1.08;74.84;98935.27;1743133;82;21155;-39
2021/03/12 11:01:28;;;;;;;16.12;9.68;;;;;;;-1.01;75.02;98931.67;1730925;82;21147;-39
2021/03/12 11:04:00;;;;;;;17.05;10.28;;;;;;;-0.95;74.00;98927.30;1713647;82;21654;-39
2021/03/12 11:06:37;;;;;;;18.20;10.25;;;;;;;-0.91;73.19;98937.60;1723203;82;21371;-39
2021/03/12 11:09:09;;;;;;;15.53;10.30;;;;;;;-0.92;72.56;98927.27;1726579;82;21456;-39
2021/03/12 11:11:37;;;;;;;18.75;10.08;;;;;;;-0.86;72.76;98930.06;1714155;82;21166;-38
2021/03/12 11:14:06;;;;;;;17.42;10.20;;;;;;;-0.86;72.11;98923.41;1714853;82;21181;-39
2021/03/12 11:16:34;;;;;;;21.97;10.35;;;;;;;-0.84;72.42;98923.12;1714052;82;21124;-39
2021/03/12 11:19:03;;;;;;;21.97;10.60;;;;;;;-0.81;72.55;98918.53;1713687;82;22304;-39
2021/03/12 11:21:33;;;;;;;14.90;9.25;;;;;;;-0.77;72.08;98926.96;1714214;82;21150;-39
2021/03/12 11:24:00;;;;;;;17.17;10.28;;;;;;;-0.77;72.12;98900.34;1731420;82;21126;-39
2021/03/12 11:26:28;;;;;;;15.25;9.78;;;;;;;-0.74;72.41;98891.00;1729013;82;21166;-38
2021/03/12 11:28:57;;;;;;;16.73;10.00;;;;;;;-0.75;72.72;98892.87;1720787;82;21163;-39
2021/03/12 11:31:27;;;;;;;17.12;10.88;;;;;;;-0.66;72.70;98889.75;1723674;82;21380;-39
2021/03/12 11:33:56;;;;;;;15.70;9.50;;;;;;;-0.59;72.23;98876.84;1714041;82;21155;-39
2021/03/12 11:36:24;;;;;;;21.05;10.72;;;;;;;-0.54;72.08;98880.73;1714095;82;21577;-39
2021/03/12 11:38:52;;;;;;;19.75;10.98;;;;;;;-0.46;72.12;98878.69;1713772;82;21597;-39
2021/03/12 11:41:20;;;;;;;17.62;9.73;;;;;;;-0.41;71.61;98866.34;1713847;82;21131;-39
2021/03/12 11:43:50;;;;;;;16.05;10.08;;;;;;;-0.38;70.91;98852.42;1739829;81;21392;-39
2021/03/12 11:46:17;;;;;;;15.75;10.75;;;;;;;-0.44;71.44;98859.20;1742580;81;21172;-39
2021/03/12 11:48:46;;;;;;;20.12;10.75;;;;;;;-0.44;72.20;98861.86;1762370;81;21555;-38
2021/03/12 11:51:14;;;;;;;15.45;11.00;;;;;;;-0.44;71.68;98858.43;1771274;81;21014;-39
2021/03/12 11:53:45;;;;;;;16.60;11.07;;;;;;;-0.42;73.38;98848.80;1771754;81;21037;-39
2021/03/12 11:56:14;;;;;;;15.50;10.68;;;;;;;-0.35;73.04;98851.84;1745135;81;21377;-39